sensor_id;sensor_type;location;lat;lon;timestamp;temperature;humidity
17437;DHT22;73152;52.198;5.422;2023-11-21T00:00:16;21.10;54.50
17437;DHT22;73152;52.198;5.422;2023-11-21T00:02:46;21.10;54.50
17437;DHT22;73152;52.198;5.422;2023-11-21T00:05:17;21.10;54.50
17437;DHT22;73152;52.198;5.422;2023-11-21T00:07:48;21.10;54.50
17437;DHT22;73152;52.198;5.422;2023-11-21T00:10:18;21.10;54.50
17437;DHT22;73152;52.198;5.422;2023-11-21T00:12:47;21.10;54.50
17437;DHT22;73152;52.198;5.422;2023-11-21T00:15:15;21.10;54.50
17437;DHT22;73152;52.198;5.422;2023-11-21T00:17:44;21.10;54.50
17437;DHT22;73152;52.198;5.422;2023-11-21T00:20:13;21.10;54.50
17437;DHT22;73152;52.198;5.422;2023-11-21T00:22:44;21.10;54.50
17437;DHT22;73152;52.198;5.422;2023-11-21T00:25:13;21.10;54.50
17437;DHT22;73152;52.198;5.422;2023-11-21T00:27:43;21.00;54.50
17437;DHT22;73152;52.198;5.422;2023-11-21T00:30:13;21.00;54.50
17437;DHT22;73152;52.198;5.422;2023-11-21T00:32:42;21.10;54.50
17437;DHT22;73152;52.198;5.422;2023-11-21T00:35:11;21.00;54.50
17437;DHT22;73152;52.198;5.422;2023-11-21T00:37:44;21.00;54.60
17437;DHT22;73152;52.198;5.422;2023-11-21T00:40:15;21.00;54.60
17437;DHT22;73152;52.198;5.422;2023-11-21T00:42:47;21.00;54.60
17437;DHT22;73152;52.198;5.422;2023-11-21T00:45:16;21.00;54.50
17437;DHT22;73152;52.198;5.422;2023-11-21T00:47:45;21.00;54.50
17437;DHT22;73152;52.198;5.422;2023-11-21T00:50:14;21.00;54.60
17437;DHT22;73152;52.198;5.422;2023-11-21T00:52:45;21.00;54.50
17437;DHT22;73152;52.198;5.422;2023-11-21T00:55:14;21.00;54.50
17437;DHT22;73152;52.198;5.422;2023-11-21T00:57:43;21.00;54.50
17437;DHT22;73152;52.198;5.422;2023-11-21T01:00:13;21.00;54.50
17437;DHT22;73152;52.198;5.422;2023-11-21T01:02:44;21.00;54.50
17437;DHT22;73152;52.198;5.422;2023-11-21T01:05:13;21.00;54.50
17437;DHT22;73152;52.198;5.422;2023-11-21T01:07:44;21.00;54.50
17437;DHT22;73152;52.198;5.422;2023-11-21T01:10:13;21.00;54.50
17437;DHT22;73152;52.198;5.422;2023-11-21T01:12:43;21.00;54.50
17437;DHT22;73152;52.198;5.422;2023-11-21T01:15:12;21.00;54.50
17437;DHT22;73152;52.198;5.422;2023-11-21T01:17:41;21.00;54.50
17437;DHT22;73152;52.198;5.422;2023-11-21T01:20:11;21.00;54.50
17437;DHT22;73152;52.198;5.422;2023-11-21T01:22:40;21.00;54.50
17437;DHT22;73152;52.198;5.422;2023-11-21T01:25:11;21.00;54.50
17437;DHT22;73152;52.198;5.422;2023-11-21T01:27:41;21.00;54.50
17437;DHT22;73152;52.198;5.422;2023-11-21T01:30:11;21.00;54.50
17437;DHT22;73152;52.198;5.422;2023-11-21T01:32:40;21.00;54.50
17437;DHT22;73152;52.198;5.422;2023-11-21T01:35:09;21.00;54.50
17437;DHT22;73152;52.198;5.422;2023-11-21T01:37:38;21.00;54.50
17437;DHT22;73152;52.198;5.422;2023-11-21T01:40:11;21.00;54.50
17437;DHT22;73152;52.198;5.422;2023-11-21T01:42:40;21.00;54.50
17437;DHT22;73152;52.198;5.422;2023-11-21T01:45:09;21.00;54.50
17437;DHT22;73152;52.198;5.422;2023-11-21T01:47:38;21.00;54.50
17437;DHT22;73152;52.198;5.422;2023-11-21T01:50:14;21.00;54.50
17437;DHT22;73152;52.198;5.422;2023-11-21T01:52:47;21.00;54.50
17437;DHT22;73152;52.198;5.422;2023-11-21T01:55:19;21.00;54.50
17437;DHT22;73152;52.198;5.422;2023-11-21T01:57:49;21.00;54.50
17437;DHT22;73152;52.198;5.422;2023-11-21T02:00:18;21.00;54.50
17437;DHT22;73152;52.198;5.422;2023-11-21T02:02:48;21.00;54.50
17437;DHT22;73152;52.198;5.422;2023-11-21T02:05:18;21.00;54.50
17437;DHT22;73152;52.198;5.422;2023-11-21T02:07:48;21.00;54.50
17437;DHT22;73152;52.198;5.422;2023-11-21T02:10:20;21.00;54.50
17437;DHT22;73152;52.198;5.422;2023-11-21T02:12:50;21.00;54.50
17437;DHT22;73152;52.198;5.422;2023-11-21T02:15:17;21.00;54.50
17437;DHT22;73152;52.198;5.422;2023-11-21T02:17:52;21.00;54.50
17437;DHT22;73152;52.198;5.422;2023-11-21T02:20:21;21.00;54.40
17437;DHT22;73152;52.198;5.422;2023-11-21T02:22:55;21.00;54.50
17437;DHT22;73152;52.198;5.422;2023-11-21T02:25:26;21.00;54.50
17437;DHT22;73152;52.198;5.422;2023-11-21T02:27:58;21.00;54.40
17437;DHT22;73152;52.198;5.422;2023-11-21T02:30:28;21.00;54.40
17437;DHT22;73152;52.198;5.422;2023-11-21T02:32:57;21.00;54.40
17437;DHT22;73152;52.198;5.422;2023-11-21T02:35:26;21.00;54.40
17437;DHT22;73152;52.198;5.422;2023-11-21T02:37:59;21.00;54.40
17437;DHT22;73152;52.198;5.422;2023-11-21T02:40:28;21.00;54.40
17437;DHT22;73152;52.198;5.422;2023-11-21T02:42:57;21.00;54.40
17437;DHT22;73152;52.198;5.422;2023-11-21T02:45:26;21.00;54.40
17437;DHT22;73152;52.198;5.422;2023-11-21T02:47:55;21.00;54.40
17437;DHT22;73152;52.198;5.422;2023-11-21T02:50:23;21.00;54.40
17437;DHT22;73152;52.198;5.422;2023-11-21T02:52:52;21.00;54.40
17437;DHT22;73152;52.198;5.422;2023-11-21T02:55:25;21.00;54.40
17437;DHT22;73152;52.198;5.422;2023-11-21T02:57:54;21.00;54.30
17437;DHT22;73152;52.198;5.422;2023-11-21T03:00:24;21.00;54.40
17437;DHT22;73152;52.198;5.422;2023-11-21T03:02:55;21.00;54.40
17437;DHT22;73152;52.198;5.422;2023-11-21T03:05:24;21.00;54.30
17437;DHT22;73152;52.198;5.422;2023-11-21T03:07:54;21.00;54.30
17437;DHT22;73152;52.198;5.422;2023-11-21T03:10:26;21.00;54.30
17437;DHT22;73152;52.198;5.422;2023-11-21T03:12:55;21.00;54.40
17437;DHT22;73152;52.198;5.422;2023-11-21T03:15:24;21.00;54.30
17437;DHT22;73152;52.198;5.422;2023-11-21T03:17:52;21.00;54.40
17437;DHT22;73152;52.198;5.422;2023-11-21T03:20:22;21.00;54.30
17437;DHT22;73152;52.198;5.422;2023-11-21T03:22:51;21.00;54.30
17437;DHT22;73152;52.198;5.422;2023-11-21T03:25:20;21.00;54.30
17437;DHT22;73152;52.198;5.422;2023-11-21T03:27:52;21.00;54.30
17437;DHT22;73152;52.198;5.422;2023-11-21T03:30:21;21.00;54.30
17437;DHT22;73152;52.198;5.422;2023-11-21T03:32:50;21.00;54.30
17437;DHT22;73152;52.198;5.422;2023-11-21T03:35:19;21.00;54.30
17437;DHT22;73152;52.198;5.422;2023-11-21T03:37:48;21.00;54.30
17437;DHT22;73152;52.198;5.422;2023-11-21T03:40:17;21.00;54.30
17437;DHT22;73152;52.198;5.422;2023-11-21T03:42:46;21.00;54.30
17437;DHT22;73152;52.198;5.422;2023-11-21T03:45:21;21.00;54.30
17437;DHT22;73152;52.198;5.422;2023-11-21T03:47:50;21.00;54.30
17437;DHT22;73152;52.198;5.422;2023-11-21T03:50:18;21.00;54.30
17437;DHT22;73152;52.198;5.422;2023-11-21T03:52:47;21.00;54.30
17437;DHT22;73152;52.198;5.422;2023-11-21T03:55:16;21.00;54.30
17437;DHT22;73152;52.198;5.422;2023-11-21T03:57:45;21.00;54.30
17437;DHT22;73152;52.198;5.422;2023-11-21T04:00:14;21.00;54.30
17437;DHT22;73152;52.198;5.422;2023-11-21T04:02:48;21.00;54.30
17437;DHT22;73152;52.198;5.422;2023-11-21T04:05:17;21.00;54.30
17437;DHT22;73152;52.198;5.422;2023-11-21T04:07:46;21.00;54.30
17437;DHT22;73152;52.198;5.422;2023-11-21T04:10:15;21.00;54.30
17437;DHT22;73152;52.198;5.422;2023-11-21T04:12:44;21.00;54.30
17437;DHT22;73152;52.198;5.422;2023-11-21T04:15:14;21.00;54.30
17437;DHT22;73152;52.198;5.422;2023-11-21T04:17:43;21.00;54.30
17437;DHT22;73152;52.198;5.422;2023-11-21T04:20:14;21.00;54.30
17437;DHT22;73152;52.198;5.422;2023-11-21T04:22:44;21.00;54.30
17437;DHT22;73152;52.198;5.422;2023-11-21T04:25:14;21.00;54.30
17437;DHT22;73152;52.198;5.422;2023-11-21T04:27:44;21.00;54.30
17437;DHT22;73152;52.198;5.422;2023-11-21T04:30:14;21.00;54.30
17437;DHT22;73152;52.198;5.422;2023-11-21T04:32:43;21.00;54.30
17437;DHT22;73152;52.198;5.422;2023-11-21T04:35:15;21.00;54.30
17437;DHT22;73152;52.198;5.422;2023-11-21T04:37:43;21.00;54.30
17437;DHT22;73152;52.198;5.422;2023-11-21T04:40:13;21.00;54.30
17437;DHT22;73152;52.198;5.422;2023-11-21T04:42:42;21.00;54.30
17437;DHT22;73152;52.198;5.422;2023-11-21T04:45:11;21.00;54.30
17437;DHT22;73152;52.198;5.422;2023-11-21T04:47:40;21.00;54.30
17437;DHT22;73152;52.198;5.422;2023-11-21T04:50:09;21.00;54.20
17437;DHT22;73152;52.198;5.422;2023-11-21T04:52:41;21.00;54.30
17437;DHT22;73152;52.198;5.422;2023-11-21T04:55:10;21.00;54.30
17437;DHT22;73152;52.198;5.422;2023-11-21T04:57:39;21.00;54.30
17437;DHT22;73152;52.198;5.422;2023-11-21T05:00:10;21.00;54.30
17437;DHT22;73152;52.198;5.422;2023-11-21T05:02:40;21.00;54.30
17437;DHT22;73152;52.198;5.422;2023-11-21T05:05:09;21.00;54.30
17437;DHT22;73152;52.198;5.422;2023-11-21T05:07:41;21.00;54.30
17437;DHT22;73152;52.198;5.422;2023-11-21T05:10:10;21.00;54.30
17437;DHT22;73152;52.198;5.422;2023-11-21T05:12:41;21.00;54.20
17437;DHT22;73152;52.198;5.422;2023-11-21T05:15:14;21.00;54.20
17437;DHT22;73152;52.198;5.422;2023-11-21T05:17:44;21.00;54.20
17437;DHT22;73152;52.198;5.422;2023-11-21T05:20:15;21.00;54.30
17437;DHT22;73152;52.198;5.422;2023-11-21T05:22:49;21.00;54.30
17437;DHT22;73152;52.198;5.422;2023-11-21T05:25:18;21.00;54.30
17437;DHT22;73152;52.198;5.422;2023-11-21T05:27:47;21.00;54.30
17437;DHT22;73152;52.198;5.422;2023-11-21T05:30:16;21.00;54.30
17437;DHT22;73152;52.198;5.422;2023-11-21T05:32:45;21.00;54.20
17437;DHT22;73152;52.198;5.422;2023-11-21T05:35:15;21.00;54.30
17437;DHT22;73152;52.198;5.422;2023-11-21T05:37:44;21.00;54.20
17437;DHT22;73152;52.198;5.422;2023-11-21T05:40:17;21.00;54.20
17437;DHT22;73152;52.198;5.422;2023-11-21T05:42:48;21.00;54.30
17437;DHT22;73152;52.198;5.422;2023-11-21T05:45:17;21.00;54.30
17437;DHT22;73152;52.198;5.422;2023-11-21T05:47:47;21.00;54.30
17437;DHT22;73152;52.198;5.422;2023-11-21T05:50:16;21.00;54.20
17437;DHT22;73152;52.198;5.422;2023-11-21T05:52:46;21.00;54.20
17437;DHT22;73152;52.198;5.422;2023-11-21T05:55:18;21.00;54.20
17437;DHT22;73152;52.198;5.422;2023-11-21T05:57:50;21.00;54.20
17437;DHT22;73152;52.198;5.422;2023-11-21T06:00:19;21.00;54.20
17437;DHT22;73152;52.198;5.422;2023-11-21T06:02:48;21.00;54.20
17437;DHT22;73152;52.198;5.422;2023-11-21T06:05:19;20.90;54.30
17437;DHT22;73152;52.198;5.422;2023-11-21T06:07:48;21.00;54.20
17437;DHT22;73152;52.198;5.422;2023-11-21T06:10:21;21.00;54.20
17437;DHT22;73152;52.198;5.422;2023-11-21T06:12:50;20.90;54.30
17437;DHT22;73152;52.198;5.422;2023-11-21T06:15:19;20.90;54.30
17437;DHT22;73152;52.198;5.422;2023-11-21T06:17:49;20.90;54.30
17437;DHT22;73152;52.198;5.422;2023-11-21T06:20:18;20.90;54.20
17437;DHT22;73152;52.198;5.422;2023-11-21T06:22:49;20.90;54.30
17437;DHT22;73152;52.198;5.422;2023-11-21T06:25:22;20.90;54.20
17437;DHT22;73152;52.198;5.422;2023-11-21T06:27:50;20.90;54.20
17437;DHT22;73152;52.198;5.422;2023-11-21T06:30:20;20.90;54.20
17437;DHT22;73152;52.198;5.422;2023-11-21T06:32:49;20.90;54.30
17437;DHT22;73152;52.198;5.422;2023-11-21T06:35:18;21.00;54.20
17437;DHT22;73152;52.198;5.422;2023-11-21T06:37:47;21.00;54.20
17437;DHT22;73152;52.198;5.422;2023-11-21T06:40:17;20.90;54.20
17437;DHT22;73152;52.198;5.422;2023-11-21T06:42:49;20.90;54.20
17437;DHT22;73152;52.198;5.422;2023-11-21T06:45:18;20.90;54.20
17437;DHT22;73152;52.198;5.422;2023-11-21T06:47:48;20.90;54.20
17437;DHT22;73152;52.198;5.422;2023-11-21T06:50:17;20.90;54.20
17437;DHT22;73152;52.198;5.422;2023-11-21T06:52:46;20.90;54.20
17437;DHT22;73152;52.198;5.422;2023-11-21T06:55:15;20.90;54.20
17437;DHT22;73152;52.198;5.422;2023-11-21T06:57:44;20.90;54.20
17437;DHT22;73152;52.198;5.422;2023-11-21T07:00:17;20.90;54.20
17437;DHT22;73152;52.198;5.422;2023-11-21T07:02:46;20.90;54.20
17437;DHT22;73152;52.198;5.422;2023-11-21T07:05:15;20.90;54.20
17437;DHT22;73152;52.198;5.422;2023-11-21T07:07:46;20.90;54.20
17437;DHT22;73152;52.198;5.422;2023-11-21T07:10:15;20.80;54.20
17437;DHT22;73152;52.198;5.422;2023-11-21T07:12:44;20.80;54.20
17437;DHT22;73152;52.198;5.422;2023-11-21T07:15:15;20.80;54.20
17437;DHT22;73152;52.198;5.422;2023-11-21T07:17:45;20.80;54.20
17437;DHT22;73152;52.198;5.422;2023-11-21T07:20:14;20.80;54.10
17437;DHT22;73152;52.198;5.422;2023-11-21T07:22:43;20.80;54.20
17437;DHT22;73152;52.198;5.422;2023-11-21T07:25:12;20.80;54.10
17437;DHT22;73152;52.198;5.422;2023-11-21T07:27:40;20.70;54.20
17437;DHT22;73152;52.198;5.422;2023-11-21T07:30:11;20.70;54.20
17437;DHT22;73152;52.198;5.422;2023-11-21T07:32:43;20.70;54.20
17437;DHT22;73152;52.198;5.422;2023-11-21T07:35:13;20.70;54.20
17437;DHT22;73152;52.198;5.422;2023-11-21T07:37:42;20.70;54.20
17437;DHT22;73152;52.198;5.422;2023-11-21T07:40:13;20.70;54.30
17437;DHT22;73152;52.198;5.422;2023-11-21T07:42:42;20.80;54.20
17437;DHT22;73152;52.198;5.422;2023-11-21T07:45:11;20.80;54.20
17437;DHT22;73152;52.198;5.422;2023-11-21T07:47:43;20.80;54.20
17437;DHT22;73152;52.198;5.422;2023-11-21T07:50:12;20.70;54.20
17437;DHT22;73152;52.198;5.422;2023-11-21T07:52:41;20.80;54.20
17437;DHT22;73152;52.198;5.422;2023-11-21T07:55:10;20.80;54.20
17437;DHT22;73152;52.198;5.422;2023-11-21T07:57:39;20.80;54.20
17437;DHT22;73152;52.198;5.422;2023-11-21T08:00:09;20.80;54.10
17437;DHT22;73152;52.198;5.422;2023-11-21T08:02:43;20.90;54.10
17437;DHT22;73152;52.198;5.422;2023-11-21T08:05:12;20.90;54.10
17437;DHT22;73152;52.198;5.422;2023-11-21T08:07:41;20.90;54.00
17437;DHT22;73152;52.198;5.422;2023-11-21T08:10:10;20.90;54.00
17437;DHT22;73152;52.198;5.422;2023-11-21T08:12:39;20.90;54.00
17437;DHT22;73152;52.198;5.422;2023-11-21T08:15:09;20.90;54.00
17437;DHT22;73152;52.198;5.422;2023-11-21T08:17:38;20.90;54.00
17437;DHT22;73152;52.198;5.422;2023-11-21T08:20:11;20.90;54.00
17437;DHT22;73152;52.198;5.422;2023-11-21T08:22:42;20.90;54.00
17437;DHT22;73152;52.198;5.422;2023-11-21T08:25:11;20.90;54.00
17437;DHT22;73152;52.198;5.422;2023-11-21T08:27:40;20.90;54.00
17437;DHT22;73152;52.198;5.422;2023-11-21T08:30:10;20.90;54.00
17437;DHT22;73152;52.198;5.422;2023-11-21T08:32:42;21.00;53.90
17437;DHT22;73152;52.198;5.422;2023-11-21T08:35:13;21.00;53.90
17437;DHT22;73152;52.198;5.422;2023-11-21T08:37:42;21.00;53.90
17437;DHT22;73152;52.198;5.422;2023-11-21T08:40:12;21.00;53.90
17437;DHT22;73152;52.198;5.422;2023-11-21T08:42:42;21.00;53.90
17437;DHT22;73152;52.198;5.422;2023-11-21T08:45:11;21.00;53.90
17437;DHT22;73152;52.198;5.422;2023-11-21T08:47:43;21.00;53.90
17437;DHT22;73152;52.198;5.422;2023-11-21T08:50:15;21.00;53.90
17437;DHT22;73152;52.198;5.422;2023-11-21T08:52:45;21.00;53.90
17437;DHT22;73152;52.198;5.422;2023-11-21T08:55:14;21.00;53.80
17437;DHT22;73152;52.198;5.422;2023-11-21T08:57:45;21.10;53.70
17437;DHT22;73152;52.198;5.422;2023-11-21T09:00:15;21.10;53.70
17437;DHT22;73152;52.198;5.422;2023-11-21T09:02:45;21.10;53.70
17437;DHT22;73152;52.198;5.422;2023-11-21T09:05:17;21.10;53.60
17437;DHT22;73152;52.198;5.422;2023-11-21T09:07:46;21.10;53.60
17437;DHT22;73152;52.198;5.422;2023-11-21T09:10:15;21.10;53.70
17437;DHT22;73152;52.198;5.422;2023-11-21T09:12:44;21.10;53.70
17437;DHT22;73152;52.198;5.422;2023-11-21T09:15:13;21.10;53.70
17437;DHT22;73152;52.198;5.422;2023-11-21T09:17:42;21.00;53.70
17437;DHT22;73152;52.198;5.422;2023-11-21T09:20:11;21.10;53.70
17437;DHT22;73152;52.198;5.422;2023-11-21T09:22:43;21.10;53.70
17437;DHT22;73152;52.198;5.422;2023-11-21T09:25:12;21.00;53.70
17437;DHT22;73152;52.198;5.422;2023-11-21T09:27:41;21.00;53.80
17437;DHT22;73152;52.198;5.422;2023-11-21T09:30:12;21.00;53.70
17437;DHT22;73152;52.198;5.422;2023-11-21T09:32:41;21.10;53.70
17437;DHT22;73152;52.198;5.422;2023-11-21T09:35:11;21.00;53.70
17437;DHT22;73152;52.198;5.422;2023-11-21T09:37:42;21.00;53.70
17437;DHT22;73152;52.198;5.422;2023-11-21T09:40:12;21.00;53.60
17437;DHT22;73152;52.198;5.422;2023-11-21T09:42:49;21.10;53.70
17437;DHT22;73152;52.198;5.422;2023-11-21T09:45:26;21.00;53.70
17437;DHT22;73152;52.198;5.422;2023-11-21T09:47:57;21.00;53.70
17437;DHT22;73152;52.198;5.422;2023-11-21T09:50:26;21.00;53.60
17437;DHT22;73152;52.198;5.422;2023-11-21T09:53:07;21.00;53.70
17437;DHT22;73152;52.198;5.422;2023-11-21T09:55:43;21.10;53.70
17437;DHT22;73152;52.198;5.422;2023-11-21T09:58:14;21.10;53.70
17437;DHT22;73152;52.198;5.422;2023-11-21T10:00:44;21.10;53.70
17437;DHT22;73152;52.198;5.422;2023-11-21T10:03:15;21.00;53.60
17437;DHT22;73152;52.198;5.422;2023-11-21T10:05:44;21.00;53.60
17437;DHT22;73152;52.198;5.422;2023-11-21T10:08:16;21.00;53.60
17437;DHT22;73152;52.198;5.422;2023-11-21T10:10:50;21.10;53.60
17437;DHT22;73152;52.198;5.422;2023-11-21T10:13:21;21.10;53.60
17437;DHT22;73152;52.198;5.422;2023-11-21T10:15:51;21.10;53.50
17437;DHT22;73152;52.198;5.422;2023-11-21T10:18:20;21.10;53.50
17437;DHT22;73152;52.198;5.422;2023-11-21T10:20:52;21.10;53.50
17437;DHT22;73152;52.198;5.422;2023-11-21T10:23:25;21.10;53.40
17437;DHT22;73152;52.198;5.422;2023-11-21T10:25:55;21.10;53.40
17437;DHT22;73152;52.198;5.422;2023-11-21T10:28:25;21.10;53.50
17437;DHT22;73152;52.198;5.422;2023-11-21T10:30:54;21.10;53.50
17437;DHT22;73152;52.198;5.422;2023-11-21T10:33:27;21.10;53.40
17437;DHT22;73152;52.198;5.422;2023-11-21T10:35:58;21.10;53.40
17437;DHT22;73152;52.198;5.422;2023-11-21T10:38:33;21.10;53.40
17437;DHT22;73152;52.198;5.422;2023-11-21T10:41:12;21.10;53.40
17437;DHT22;73152;52.198;5.422;2023-11-21T10:43:43;21.10;53.50
17437;DHT22;73152;52.198;5.422;2023-11-21T10:46:12;21.00;53.40
17437;DHT22;73152;52.198;5.422;2023-11-21T10:48:42;21.00;53.40
17437;DHT22;73152;52.198;5.422;2023-11-21T10:51:12;21.10;53.40
17437;DHT22;73152;52.198;5.422;2023-11-21T10:53:44;21.00;53.40
17437;DHT22;73152;52.198;5.422;2023-11-21T10:56:14;21.10;53.40
17437;DHT22;73152;52.198;5.422;2023-11-21T10:58:48;21.10;53.40
17437;DHT22;73152;52.198;5.422;2023-11-21T11:01:19;21.10;53.40
17437;DHT22;73152;52.198;5.422;2023-11-21T11:03:50;21.10;53.30
17437;DHT22;73152;52.198;5.422;2023-11-21T11:06:24;21.00;53.40
17437;DHT22;73152;52.198;5.422;2023-11-21T11:09:01;21.00;53.40
17437;DHT22;73152;52.198;5.422;2023-11-21T11:11:30;21.00;53.40
17437;DHT22;73152;52.198;5.422;2023-11-21T11:14:00;21.00;53.40
17437;DHT22;73152;52.198;5.422;2023-11-21T11:16:29;21.00;53.40
17437;DHT22;73152;52.198;5.422;2023-11-21T11:18:58;21.00;53.40
17437;DHT22;73152;52.198;5.422;2023-11-21T11:21:42;21.00;53.50
17437;DHT22;73152;52.198;5.422;2023-11-21T11:24:41;21.00;53.40
17437;DHT22;73152;52.198;5.422;2023-11-21T11:27:30;21.00;53.40
17437;DHT22;73152;52.198;5.422;2023-11-21T11:30:32;21.00;53.40
17437;DHT22;73152;52.198;5.422;2023-11-21T11:33:19;21.00;53.40
17437;DHT22;73152;52.198;5.422;2023-11-21T11:35:59;21.00;53.30
17437;DHT22;73152;52.198;5.422;2023-11-21T11:38:35;21.00;53.40
17437;DHT22;73152;52.198;5.422;2023-11-21T11:41:07;21.00;53.30
17437;DHT22;73152;52.198;5.422;2023-11-21T11:43:36;21.00;53.30
17437;DHT22;73152;52.198;5.422;2023-11-21T11:46:10;21.10;53.30
17437;DHT22;73152;52.198;5.422;2023-11-21T11:48:41;21.10;53.30
17437;DHT22;73152;52.198;5.422;2023-11-21T11:51:11;21.10;53.20
17437;DHT22;73152;52.198;5.422;2023-11-21T11:53:43;21.10;53.20
17437;DHT22;73152;52.198;5.422;2023-11-21T11:56:26;21.10;53.20
17437;DHT22;73152;52.198;5.422;2023-11-21T11:58:58;21.00;53.20
17437;DHT22;73152;52.198;5.422;2023-11-21T12:01:29;21.00;53.20
17437;DHT22;73152;52.198;5.422;2023-11-21T12:04:24;21.00;53.20
17437;DHT22;73152;52.198;5.422;2023-11-21T12:07:01;21.00;53.20
17437;DHT22;73152;52.198;5.422;2023-11-21T12:09:33;21.00;53.30
17437;DHT22;73152;52.198;5.422;2023-11-21T12:12:05;21.00;53.20
17437;DHT22;73152;52.198;5.422;2023-11-21T12:14:36;21.00;53.20
17437;DHT22;73152;52.198;5.422;2023-11-21T12:17:05;21.00;53.10
17437;DHT22;73152;52.198;5.422;2023-11-21T12:19:35;21.00;53.10
17437;DHT22;73152;52.198;5.422;2023-11-21T12:22:04;21.10;53.20
17437;DHT22;73152;52.198;5.422;2023-11-21T12:24:33;21.10;53.10
17437;DHT22;73152;52.198;5.422;2023-11-21T12:27:05;21.10;53.00
17437;DHT22;73152;52.198;5.422;2023-11-21T12:29:34;21.10;53.00
17437;DHT22;73152;52.198;5.422;2023-11-21T12:32:04;21.10;52.90
17437;DHT22;73152;52.198;5.422;2023-11-21T12:34:33;21.10;53.00
17437;DHT22;73152;52.198;5.422;2023-11-21T12:37:02;21.10;52.90
17437;DHT22;73152;52.198;5.422;2023-11-21T12:39:31;21.20;52.90
17437;DHT22;73152;52.198;5.422;2023-11-21T12:42:00;21.20;52.90
17437;DHT22;73152;52.198;5.422;2023-11-21T12:44:34;21.10;52.80
17437;DHT22;73152;52.198;5.422;2023-11-21T12:47:06;21.10;52.90
17437;DHT22;73152;52.198;5.422;2023-11-21T12:49:39;21.20;52.90
17437;DHT22;73152;52.198;5.422;2023-11-21T12:52:09;21.10;52.80
17437;DHT22;73152;52.198;5.422;2023-11-21T12:54:38;21.10;52.80
17437;DHT22;73152;52.198;5.422;2023-11-21T12:57:07;21.20;52.80
17437;DHT22;73152;52.198;5.422;2023-11-21T12:59:41;21.20;52.80
17437;DHT22;73152;52.198;5.422;2023-11-21T13:02:12;21.20;52.80
17437;DHT22;73152;52.198;5.422;2023-11-21T13:04:41;21.10;52.80
17437;DHT22;73152;52.198;5.422;2023-11-21T13:07:15;21.20;52.80
17437;DHT22;73152;52.198;5.422;2023-11-21T13:09:45;21.10;52.80
17437;DHT22;73152;52.198;5.422;2023-11-21T13:12:14;21.10;52.70
17437;DHT22;73152;52.198;5.422;2023-11-21T13:14:48;21.10;52.80
17437;DHT22;73152;52.198;5.422;2023-11-21T13:17:17;21.20;52.80
17437;DHT22;73152;52.198;5.422;2023-11-21T13:19:49;21.20;52.70
17437;DHT22;73152;52.198;5.422;2023-11-21T13:22:20;21.10;52.70
17437;DHT22;73152;52.198;5.422;2023-11-21T13:24:50;21.10;52.70
17437;DHT22;73152;52.198;5.422;2023-11-21T13:27:19;21.10;52.70
17437;DHT22;73152;52.198;5.422;2023-11-21T13:29:50;21.10;52.80
17437;DHT22;73152;52.198;5.422;2023-11-21T13:32:20;21.00;52.80
17437;DHT22;73152;52.198;5.422;2023-11-21T13:34:48;21.10;52.90
17437;DHT22;73152;52.198;5.422;2023-11-21T13:37:19;21.10;52.80
17437;DHT22;73152;52.198;5.422;2023-11-21T13:39:50;21.10;52.80
17437;DHT22;73152;52.198;5.422;2023-11-21T13:42:20;21.10;52.90
17437;DHT22;73152;52.198;5.422;2023-11-21T13:44:58;21.10;52.90
17437;DHT22;73152;52.198;5.422;2023-11-21T13:47:28;21.10;52.80
17437;DHT22;73152;52.198;5.422;2023-11-21T13:49:59;21.10;52.90
17437;DHT22;73152;52.198;5.422;2023-11-21T13:52:28;21.00;52.90
17437;DHT22;73152;52.198;5.422;2023-11-21T13:54:59;21.00;52.90
17437;DHT22;73152;52.198;5.422;2023-11-21T13:57:32;21.00;52.90
17437;DHT22;73152;52.198;5.422;2023-11-21T14:00:04;21.00;53.00
17437;DHT22;73152;52.198;5.422;2023-11-21T14:02:54;21.00;53.00
17437;DHT22;73152;52.198;5.422;2023-11-21T14:05:26;21.00;53.00
17437;DHT22;73152;52.198;5.422;2023-11-21T14:07:57;21.00;53.00
17437;DHT22;73152;52.198;5.422;2023-11-21T14:10:30;21.00;53.00
17437;DHT22;73152;52.198;5.422;2023-11-21T14:13:06;21.00;53.00
17437;DHT22;73152;52.198;5.422;2023-11-21T14:15:39;20.90;53.60
17437;DHT22;73152;52.198;5.422;2023-11-21T14:18:11;20.80;54.00
17437;DHT22;73152;52.198;5.422;2023-11-21T14:20:43;20.80;54.10
17437;DHT22;73152;52.198;5.422;2023-11-21T14:23:13;20.80;54.20
17437;DHT22;73152;52.198;5.422;2023-11-21T14:25:43;20.70;54.30
17437;DHT22;73152;52.198;5.422;2023-11-21T14:28:14;20.70;54.30
17437;DHT22;73152;52.198;5.422;2023-11-21T14:30:45;20.70;54.40
17437;DHT22;73152;52.198;5.422;2023-11-21T14:33:14;20.70;54.40
17437;DHT22;73152;52.198;5.422;2023-11-21T14:35:43;20.70;54.30
17437;DHT22;73152;52.198;5.422;2023-11-21T14:38:12;20.70;54.30
17437;DHT22;73152;52.198;5.422;2023-11-21T14:40:41;20.60;54.40
17437;DHT22;73152;52.198;5.422;2023-11-21T14:43:13;20.70;54.40
17437;DHT22;73152;52.198;5.422;2023-11-21T14:45:45;20.60;54.40
17437;DHT22;73152;52.198;5.422;2023-11-21T14:48:14;20.60;54.40
17437;DHT22;73152;52.198;5.422;2023-11-21T14:50:57;20.70;54.30
17437;DHT22;73152;52.198;5.422;2023-11-21T14:53:38;20.60;54.30
17437;DHT22;73152;52.198;5.422;2023-11-21T14:56:19;20.60;54.30
17437;DHT22;73152;52.198;5.422;2023-11-21T14:58:52;20.60;54.30
17437;DHT22;73152;52.198;5.422;2023-11-21T15:01:25;20.60;54.40
17437;DHT22;73152;52.198;5.422;2023-11-21T15:04:10;20.60;54.40
17437;DHT22;73152;52.198;5.422;2023-11-21T15:06:49;20.60;54.50
17437;DHT22;73152;52.198;5.422;2023-11-21T15:09:18;20.60;54.40
17437;DHT22;73152;52.198;5.422;2023-11-21T15:12:02;20.60;54.40
17437;DHT22;73152;52.198;5.422;2023-11-21T15:14:40;20.60;54.40
17437;DHT22;73152;52.198;5.422;2023-11-21T15:17:11;20.60;54.30
17437;DHT22;73152;52.198;5.422;2023-11-21T15:19:44;20.60;54.40
17437;DHT22;73152;52.198;5.422;2023-11-21T15:22:13;20.60;54.50
17437;DHT22;73152;52.198;5.422;2023-11-21T15:24:42;20.60;54.50
17437;DHT22;73152;52.198;5.422;2023-11-21T15:27:13;20.60;54.50
17437;DHT22;73152;52.198;5.422;2023-11-21T15:29:43;20.60;54.50
17437;DHT22;73152;52.198;5.422;2023-11-21T15:32:14;20.60;54.50
17437;DHT22;73152;52.198;5.422;2023-11-21T15:34:43;20.60;54.50
17437;DHT22;73152;52.198;5.422;2023-11-21T15:37:12;20.60;54.60
17437;DHT22;73152;52.198;5.422;2023-11-21T15:39:41;20.60;54.60
17437;DHT22;73152;52.198;5.422;2023-11-21T15:42:10;20.60;54.60
17437;DHT22;73152;52.198;5.422;2023-11-21T15:44:39;20.60;54.60
17437;DHT22;73152;52.198;5.422;2023-11-21T15:47:08;20.60;54.60
17437;DHT22;73152;52.198;5.422;2023-11-21T15:49:40;20.60;54.60
17437;DHT22;73152;52.198;5.422;2023-11-21T15:52:09;20.60;54.60